Time;durP1;ratioP1;P1;durP2;ratioP2;P2;SDS_P1;SDS_P2;PMS_P1;PMS_P2;Temp;Humidity;BMP_temperature;BMP_pressure;BME280_temperature;BME280_humidity;BME280_pressure;Samples;Min_cycle;Max_cycle;Signal;HPM_P1;HPM_P2
2022/03/02 00:00:23;;;;;;;9.53;3.30;;;;;;;4.03;78.01;101747.94;1957274;72;21028;-67
2022/03/02 00:02:52;;;;;;;9.65;3.00;;;;;;;3.94;77.98;101740.08;1952074;72;21458;-60
2022/03/02 00:05:21;;;;;;;6.92;2.45;;;;;;;3.84;78.05;101743.95;1952129;72;21458;-62
2022/03/02 00:07:50;;;;;;;15.03;2.87;;;;;;;3.74;78.19;101735.63;1948133;72;21668;-61
2022/03/02 00:10:18;;;;;;;11.90;2.98;;;;;;;3.70;78.37;101744.74;1947061;72;21117;-62
2022/03/02 00:12:50;;;;;;;5.80;2.40;;;;;;;3.67;78.48;101740.36;1963988;72;21443;-62
2022/03/02 00:15:19;;;;;;;13.55;3.75;;;;;;;3.63;78.45;101744.72;1958808;72;21085;-66
2022/03/02 00:17:47;;;;;;;3.02;1.85;;;;;;;3.62;78.60;101746.00;1948471;72;21671;-61
2022/03/02 00:20:17;;;;;;;7.62;2.17;;;;;;;3.64;78.77;101745.58;1958788;72;21008;-64
2022/03/02 00:22:45;;;;;;;8.50;2.70;;;;;;;3.66;78.87;101741.25;1956723;72;21052;-65
2022/03/02 00:25:14;;;;;;;7.28;2.33;;;;;;;3.67;78.86;101745.58;1955787;72;21612;-64
2022/03/02 00:27:43;;;;;;;9.28;3.47;;;;;;;3.66;78.85;101737.34;1957962;72;21567;-64
2022/03/02 00:30:12;;;;;;;8.00;2.47;;;;;;;3.64;78.85;101744.28;1950572;72;21113;-62
2022/03/02 00:32:41;;;;;;;8.03;2.47;;;;;;;3.58;79.01;101746.41;1952037;72;21159;-57
2022/03/02 00:35:10;;;;;;;7.15;2.45;;;;;;;3.60;79.07;101750.34;1956594;72;21470;-62
2022/03/02 00:37:39;;;;;;;5.80;1.87;;;;;;;3.65;79.14;101742.98;1958919;72;21581;-60
2022/03/02 00:40:08;;;;;;;5.70;2.22;;;;;;;3.70;79.17;101745.60;1933446;73;21144;-61
2022/03/02 00:42:37;;;;;;;5.67;1.80;;;;;;;3.74;79.21;101747.36;1949677;72;21524;-60
2022/03/02 00:45:06;;;;;;;4.17;2.30;;;;;;;3.77;79.35;101741.31;1985041;71;21059;-59
2022/03/02 00:47:35;;;;;;;3.27;2.00;;;;;;;3.83;79.42;101751.75;1987527;72;21027;-60
2022/03/02 00:50:06;;;;;;;7.35;2.02;;;;;;;3.93;79.48;101739.63;1987465;72;20999;-60
2022/03/02 00:52:35;;;;;;;4.37;2.22;;;;;;;4.03;79.39;101747.94;1984755;72;20987;-60
2022/03/02 00:55:04;;;;;;;5.53;2.50;;;;;;;4.08;79.18;101748.84;1981833;72;21113;-60
2022/03/02 00:57:34;;;;;;;6.10;2.05;;;;;;;4.07;78.98;101748.38;1981765;72;21422;-60
2022/03/02 01:00:04;;;;;;;4.35;1.70;;;;;;;4.09;79.07;101753.16;1981688;72;21524;-61
2022/03/02 01:02:33;;;;;;;9.80;2.47;;;;;;;4.15;79.12;101748.00;1981580;72;21516;-59
2022/03/02 01:05:02;;;;;;;7.00;1.82;;;;;;;4.25;79.18;101747.59;1981919;72;21470;-60
2022/03/02 01:07:30;;;;;;;5.83;2.50;;;;;;;4.31;79.11;101740.22;1981763;72;21622;-60
2022/03/02 01:10:00;;;;;;;5.25;2.20;;;;;;;4.28;78.89;101729.77;1981699;72;21043;-60
2022/03/02 01:12:29;;;;;;;6.17;2.05;;;;;;;4.23;78.86;101733.68;1983568;72;21027;-60
2022/03/02 01:15:10;;;;;;;6.12;2.50;;;;;;;4.19;78.90;101735.41;1987348;71;21077;-62
2022/03/02 01:17:47;;;;;;;4.60;1.80;;;;;;;4.16;79.01;101734.52;1980332;72;21100;-61
2022/03/02 01:20:25;;;;;;;6.92;2.60;;;;;;;4.21;79.17;101736.28;1959798;72;21027;-62
2022/03/02 01:22:57;;;;;;;7.92;2.00;;;;;;;4.25;79.22;101735.41;1952491;73;21047;-62
2022/03/02 01:25:25;;;;;;;8.38;2.12;;;;;;;4.27;79.19;101737.17;1952492;72;21011;-62
2022/03/02 01:27:54;;;;;;;4.75;2.10;;;;;;;4.25;79.12;101738.02;1952475;73;21509;-63
2022/03/02 01:30:23;;;;;;;6.37;2.20;;;;;;;4.25;79.07;101733.25;1952463;73;21473;-64
2022/03/02 01:32:52;;;;;;;5.35;2.15;;;;;;;4.22;79.10;101737.14;1952481;73;21054;-64
2022/03/02 01:35:21;;;;;;;7.30;2.33;;;;;;;4.19;79.17;101734.09;1952498;73;21086;-60
2022/03/02 01:37:50;;;;;;;8.28;2.17;;;;;;;4.18;79.17;101731.04;1974099;72;21531;-61
2022/03/02 01:40:19;;;;;;;5.70;2.33;;;;;;;4.12;79.09;101734.94;1987467;72;21458;-62
2022/03/02 01:42:48;;;;;;;4.78;2.10;;;;;;;4.08;79.09;101740.12;1987436;72;21524;-62
2022/03/02 01:45:17;;;;;;;4.58;2.00;;;;;;;4.02;79.22;101739.26;1986823;71;21497;-63
2022/03/02 01:47:46;;;;;;;6.05;2.30;;;;;;;3.99;79.31;101741.84;1973797;72;21478;-61
2022/03/02 01:50:16;;;;;;;5.87;2.08;;;;;;;3.98;79.49;101747.04;1976599;72;21462;-61
2022/03/02 01:52:45;;;;;;;5.67;2.27;;;;;;;3.96;79.49;101744.86;1976810;72;21081;-63
2022/03/02 01:55:17;;;;;;;7.78;2.40;;;;;;;3.93;79.42;101747.45;1976716;72;21027;-62
2022/03/02 01:58:05;;;;;;;6.80;2.40;;;;;;;3.88;79.42;101746.58;1893906;75;21627;-62
2022/03/02 02:00:34;;;;;;;5.35;2.40;;;;;;;3.85;79.50;101748.72;1904395;75;21069;-62
2022/03/02 02:03:03;;;;;;;6.95;2.65;;;;;;;3.81;79.48;101747.83;1904284;75;21671;-62
2022/03/02 02:05:32;;;;;;;6.33;2.50;;;;;;;3.74;79.31;101753.87;1904352;75;21143;-61
2022/03/02 02:08:01;;;;;;;5.62;2.55;;;;;;;3.68;79.12;101761.66;1904357;75;21077;-61
2022/03/02 02:10:30;;;;;;;10.58;2.72;;;;;;;3.60;78.97;101765.52;1903080;75;21475;-62
2022/03/02 02:12:59;;;;;;;6.55;2.77;;;;;;;3.52;78.85;101761.12;1904465;75;21111;-63
2022/03/02 02:15:28;;;;;;;10.75;3.67;;;;;;;3.43;78.87;101755.01;1904300;75;21022;-61
2022/03/02 02:17:57;;;;;;;7.83;3.40;;;;;;;3.37;78.94;101754.94;1903609;75;21444;-61
2022/03/02 02:20:26;;;;;;;9.28;3.47;;;;;;;3.32;78.91;101762.28;1904364;75;21025;-64
2022/03/02 02:22:55;;;;;;;8.58;3.00;;;;;;;3.24;79.01;101758.33;1904385;75;21135;-65
2022/03/02 02:25:28;;;;;;;8.30;3.08;;;;;;;3.17;79.15;101752.63;1904370;75;21526;-65
2022/03/02 02:27:56;;;;;;;;;;;;;;;3.08;79.21;101747.80;1907207;75;21018;-66
2022/03/02 02:30:26;;;;;;;9.38;3.55;;;;;;;3.05;79.16;101741.70;1903875;75;20116;-66
2022/03/02 02:32:55;;;;;;;6.22;2.62;;;;;;;2.98;79.20;101745.97;1904307;75;21599;-62
2022/03/02 02:35:28;;;;;;;6.90;3.20;;;;;;;2.95;79.32;101743.37;1903563;75;21061;-62
2022/03/02 02:37:58;;;;;;;7.20;3.50;;;;;;;3.00;79.40;101741.65;1898621;75;21042;-61
2022/03/02 02:40:28;;;;;;;6.75;2.70;;;;;;;3.00;79.46;101744.25;1898149;75;21104;-63
2022/03/02 02:42:57;;;;;;;11.25;3.20;;;;;;;3.03;79.55;101744.28;1898403;75;21045;-61
2022/03/02 02:45:26;;;;;;;11.55;3.65;;;;;;;3.05;79.61;101746.91;1889677;75;21490;-60
2022/03/02 02:47:56;;;;;;;9.38;3.40;;;;;;;3.07;79.58;101743.45;1886307;76;21472;-60
2022/03/02 02:50:30;;;;;;;10.05;3.92;;;;;;;3.09;79.51;101753.44;1886413;76;21018;-60
2022/03/02 02:53:01;;;;;;;10.38;4.20;;;;;;;3.12;79.47;101755.62;1886166;76;21346;-60
2022/03/02 02:55:30;;;;;;;9.25;4.15;;;;;;;3.14;79.51;101752.63;1886265;76;21148;-63
2022/03/02 02:58:01;;;;;;;9.90;4.45;;;;;;;3.23;79.68;101754.00;1890647;76;21183;-64
2022/03/02 03:00:32;;;;;;;16.00;7.90;;;;;;;3.28;79.66;101749.27;1894210;74;21183;-62
2022/03/02 03:03:01;;;;;;;12.43;7.08;;;;;;;3.36;79.65;101744.11;1891935;76;21041;-62
2022/03/02 03:05:32;;;;;;;22.95;11.08;;;;;;;3.42;79.63;101738.06;1891930;76;21152;-62
2022/03/02 03:08:06;;;;;;;18.32;10.68;;;;;;;3.49;79.75;101741.16;1853049;77;21029;-63
2022/03/02 03:10:35;;;;;;;25.02;13.03;;;;;;;3.51;79.68;101735.96;1879761;76;21035;-62
2022/03/02 03:13:04;;;;;;;17.73;9.00;;;;;;;3.51;79.54;101741.17;1879307;76;21478;-63
2022/03/02 03:15:35;;;;;;;23.92;9.40;;;;;;;3.45;79.44;101728.55;1879200;76;21446;-64
2022/03/02 03:18:05;;;;;;;16.75;7.92;;;;;;;3.38;79.40;101729.36;1879198;76;21105;-61
2022/03/02 03:20:34;;;;;;;9.98;5.20;;;;;;;3.30;79.39;101732.33;1879286;76;21559;-63
2022/03/02 03:23:05;;;;;;;15.65;5.08;;;;;;;3.24;79.37;101733.16;1879334;76;21046;-63
2022/03/02 03:25:34;;;;;;;11.53;5.42;;;;;;;3.17;79.27;101730.50;1886736;76;21038;-61
2022/03/02 03:28:04;;;;;;;12.88;5.95;;;;;;;3.08;79.28;101731.30;1894137;76;21477;-60
2022/03/02 03:30:33;;;;;;;13.48;6.50;;;;;;;3.02;79.37;101729.52;1927808;74;21010;-62
2022/03/02 03:33:04;;;;;;;14.83;5.92;;;;;;;2.96;79.51;101724.28;1927863;74;21112;-61
2022/03/02 03:35:33;;;;;;;20.88;6.37;;;;;;;2.94;79.67;101725.14;1925386;74;21034;-60
2022/03/02 03:38:01;;;;;;;20.23;5.47;;;;;;;2.96;79.80;101730.78;1927862;74;21070;-60
2022/03/02 03:40:30;;;;;;;15.48;5.50;;;;;;;2.96;79.97;101724.72;1927790;74;21492;-60
2022/03/02 03:43:00;;;;;;;13.83;5.25;;;;;;;2.98;80.03;101730.36;1927865;74;21151;-64
2022/03/02 03:45:28;;;;;;;11.53;5.70;;;;;;;2.96;79.99;101737.29;1891221;76;21469;-65
2022/03/02 03:47:57;;;;;;;12.43;7.08;;;;;;;2.93;79.90;101744.20;1891193;76;21148;-65
2022/03/02 03:50:26;;;;;;;17.25;8.20;;;;;;;2.88;79.79;101742.43;1902361;74;21120;-60
2022/03/02 03:52:54;;;;;;;13.78;6.30;;;;;;;2.85;79.74;101746.73;1927883;74;21550;-60
2022/03/02 03:55:24;;;;;;;11.73;6.30;;;;;;;2.81;79.73;101738.47;1927771;74;21111;-60
2022/03/02 03:57:53;;;;;;;14.78;7.17;;;;;;;2.79;79.73;101733.25;1929104;74;21500;-59
2022/03/02 04:00:22;;;;;;;12.33;7.33;;;;;;;2.74;79.85;101737.97;1925188;74;21143;-61
2022/03/02 04:02:51;;;;;;;20.82;8.90;;;;;;;2.72;79.89;101731.87;1897812;75;21010;-62
2022/03/02 04:05:20;;;;;;;18.33;9.33;;;;;;;2.69;79.95;101729.70;1897695;75;21069;-62
2022/03/02 04:07:48;;;;;;;13.30;8.23;;;;;;;2.72;80.04;101730.58;1897627;75;21045;-63
2022/03/02 04:10:18;;;;;;;12.68;3.95;;;;;;;2.73;80.10;101733.60;1897585;75;21130;-62
2022/03/02 04:12:47;;;;;;;10.28;3.58;;;;;;;2.75;80.17;101743.59;1897733;75;21472;-63
2022/03/02 04:15:16;;;;;;;6.00;2.85;;;;;;;2.74;80.42;101740.12;1897847;75;21469;-60
2022/03/02 04:17:46;;;;;;;13.03;5.62;;;;;;;2.76;80.43;101738.84;1897708;75;21511;-60
2022/03/02 04:20:14;;;;;;;7.28;3.87;;;;;;;2.78;80.46;101739.29;1898241;74;21038;-66
2022/03/02 04:22:43;;;;;;;10.60;4.35;;;;;;;2.85;80.49;101732.42;1897607;75;21168;-63
2022/03/02 04:25:12;;;;;;;6.30;3.42;;;;;;;3.01;80.51;101738.64;1897728;75;21472;-64
2022/03/02 04:27:41;;;;;;;9.10;3.98;;;;;;;3.19;80.52;101741.80;1897849;75;21511;-65
2022/03/02 04:30:13;;;;;;;8.83;3.22;;;;;;;3.37;80.54;101741.06;1899822;74;21531;-63
2022/03/02 04:32:42;;;;;;;7.50;3.22;;;;;;;3.50;80.48;101739.41;1897698;75;21054;-62
2022/03/02 04:35:12;;;;;;;7.42;2.45;;;;;;;3.62;80.29;101739.49;1897554;75;21488;-63
2022/03/02 04:37:42;;;;;;;7.37;2.87;;;;;;;3.72;80.16;101738.66;1899876;74;21506;-60
2022/03/02 04:40:13;;;;;;;8.73;3.22;;;;;;;3.81;80.19;101743.92;1897711;75;21066;-60
2022/03/02 04:42:42;;;;;;;10.93;4.20;;;;;;;3.89;80.05;101745.70;1903582;74;21115;-63
2022/03/02 04:45:12;;;;;;;7.22;3.65;;;;;;;3.90;79.93;101756.57;1919491;74;21010;-63
2022/03/02 04:47:41;;;;;;;13.05;3.45;;;;;;;3.90;79.99;101752.66;1927683;74;21043;-63
2022/03/02 04:50:12;;;;;;;9.35;3.37;;;;;;;3.93;79.99;101753.55;1897714;75;21170;-63
2022/03/02 04:52:41;;;;;;;5.40;2.75;;;;;;;3.98;79.98;101753.55;1897716;75;21151;-62
2022/03/02 04:55:11;;;;;;;10.03;4.53;;;;;;;4.06;79.82;101754.48;1926996;74;21540;-62
2022/03/02 04:57:45;;;;;;;10.10;4.33;;;;;;;4.11;79.76;101752.73;1907545;74;21112;-60
2022/03/02 05:00:25;;;;;;;10.03;4.95;;;;;;;4.30;79.85;101752.80;1883734;76;21060;-60
2022/03/02 05:02:55;;;;;;;15.30;6.72;;;;;;;4.64;79.71;101755.93;1883751;76;21217;-60
2022/03/02 05:05:25;;;;;;;9.65;4.67;;;;;;;5.10;79.46;101760.77;1866461;74;21144;-61
2022/03/02 05:07:55;;;;;;;13.28;4.92;;;;;;;5.54;79.17;101769.87;1852967;77;21478;-60
2022/03/02 05:10:24;;;;;;;11.93;4.95;;;;;;;5.75;78.71;101762.41;1870579;77;21038;-61
2022/03/02 05:12:53;;;;;;;9.13;4.28;;;;;;;5.79;78.18;101769.39;1870630;76;21039;-60
2022/03/02 05:15:23;;;;;;;10.82;4.28;;;;;;;5.69;77.82;101770.72;1868360;77;21117;-61
2022/03/02 05:20:41;;;;;;;10.30;3.65;;;;;;;5.68;77.51;101768.55;1904377;75;21055;-61
2022/03/02 05:23:09;;;;;;;10.72;4.37;;;;;;;5.71;77.42;101768.52;1904380;75;21112;-63
2022/03/02 05:25:38;;;;;;;7.83;3.35;;;;;;;5.72;77.40;101766.80;1895349;75;21036;-61
2022/03/02 05:28:07;;;;;;;15.80;5.30;;;;;;;5.74;77.33;101765.91;1894192;76;21032;-60
2022/03/02 05:30:35;;;;;;;12.35;7.00;;;;;;;5.90;77.25;101767.16;1894149;76;21039;-61
2022/03/02 05:33:04;;;;;;;11.18;6.90;;;;;;;6.10;77.10;101765.37;1895511;74;21042;-61
2022/03/02 05:35:33;;;;;;;11.50;5.90;;;;;;;6.33;77.05;101769.66;1894037;76;21125;-62
2022/03/02 05:38:02;;;;;;;10.05;3.27;;;;;;;6.59;76.93;101764.72;1907204;74;21018;-62
2022/03/02 05:40:31;;;;;;;5.62;2.15;;;;;;;6.84;76.85;101771.95;1929300;74;21023;-63
2022/03/02 05:42:59;;;;;;;6.40;2.50;;;;;;;7.02;76.56;101769.64;1911635;74;21019;-62
2022/03/02 05:45:28;;;;;;;6.00;2.70;;;;;;;7.24;76.38;101765.09;1914513;75;21021;-61
2022/03/02 05:47:57;;;;;;;8.00;4.83;;;;;;;7.41;76.04;101763.18;1908086;74;21126;-61
2022/03/02 05:50:26;;;;;;;5.15;3.20;;;;;;;7.73;75.76;101759.39;1894084;76;21541;-60
2022/03/02 05:52:55;;;;;;;10.72;3.50;;;;;;;8.52;75.92;101755.37;1896596;74;21081;-63
2022/03/02 05:55:23;;;;;;;10.90;3.15;;;;;;;9.15;75.73;101746.51;1896406;74;21097;-61
2022/03/02 05:57:52;;;;;;;13.10;4.80;;;;;;;9.34;75.51;101746.19;1894108;76;21475;-61
2022/03/02 06:00:21;;;;;;;12.25;4.87;;;;;;;9.63;75.02;101745.66;1896363;74;21120;-61
2022/03/02 06:02:50;;;;;;;8.38;4.00;;;;;;;10.64;74.17;101738.70;1895485;74;21089;-61
2022/03/02 06:05:19;;;;;;;26.52;10.80;;;;;;;11.41;72.83;101726.25;1894131;76;21071;-61
2022/03/02 06:07:48;;;;;;;12.15;5.37;;;;;;;12.00;71.20;101720.70;1894130;76;21547;-61
2022/03/02 06:10:18;;;;;;;13.90;5.92;;;;;;;12.65;69.45;101721.80;1896320;74;21094;-60
2022/03/02 06:12:48;;;;;;;13.38;4.83;;;;;;;13.01;67.39;101715.34;1906525;74;21084;-60
2022/03/02 06:15:17;;;;;;;7.95;4.10;;;;;;;13.27;65.70;101717.95;1929246;74;21074;-61
2022/03/02 06:17:46;;;;;;;8.90;3.70;;;;;;;13.40;64.38;101710.48;1929290;74;21026;-61
2022/03/02 06:20:16;;;;;;;9.63;2.65;;;;;;;13.42;62.16;101708.64;1911668;74;21165;-61
2022/03/02 06:22:46;;;;;;;12.15;3.35;;;;;;;13.34;60.81;101712.50;1908342;74;21142;-60
2022/03/02 06:25:15;;;;;;;9.25;2.95;;;;;;;13.08;60.36;101704.50;1905956;75;21052;-61
2022/03/02 06:27:44;;;;;;;24.52;9.33;;;;;;;12.54;60.03;101706.71;1905875;75;21103;-60
2022/03/02 06:30:13;;;;;;;6.90;3.37;;;;;;;11.83;61.05;101707.51;1909611;75;21031;-59
2022/03/02 06:32:42;;;;;;;10.55;3.02;;;;;;;11.22;61.36;101709.20;1926165;74;21088;-60
2022/03/02 06:35:12;;;;;;;8.50;3.08;;;;;;;10.52;61.50;101707.41;1923371;74;21019;-60
2022/03/02 06:37:40;;;;;;;8.18;3.30;;;;;;;10.04;62.55;101701.39;1880685;75;21446;-62
2022/03/02 06:40:12;;;;;;;8.43;2.58;;;;;;;9.73;63.42;101705.11;1913011;75;21074;-60
2022/03/02 06:42:49;;;;;;;8.58;2.90;;;;;;;9.46;63.74;101706.51;1878802;76;21043;-60
2022/03/02 06:45:26;;;;;;;10.00;2.87;;;;;;;9.20;63.72;101705.26;1913102;75;21035;-60
2022/03/02 06:48:00;;;;;;;10.88;2.58;;;;;;;9.00;64.19;101702.08;1895065;75;21034;-61
2022/03/02 06:50:31;;;;;;;12.58;6.42;;;;;;;8.85;64.51;101702.78;1878727;76;21109;-62
2022/03/02 06:53:02;;;;;;;12.55;5.45;;;;;;;8.83;64.91;101695.34;1878824;76;21153;-61
2022/03/02 06:55:31;;;;;;;16.00;4.40;;;;;;;8.86;64.99;101699.25;1879024;76;21035;-61
2022/03/02 06:58:01;;;;;;;7.80;2.98;;;;;;;8.95;64.72;101707.89;1878803;76;21124;-63
2022/03/02 07:00:33;;;;;;;7.58;2.62;;;;;;;9.13;64.60;101694.44;1878938;76;21136;-62
2022/03/02 07:03:10;;;;;;;7.53;2.60;;;;;;;9.50;64.31;101692.44;1878792;76;21536;-61
2022/03/02 07:05:40;;;;;;;6.37;2.33;;;;;;;9.97;63.77;101685.32;1878807;76;21035;-59
2022/03/02 07:08:09;;;;;;;9.33;3.52;;;;;;;10.30;63.13;101673.64;1878856;76;21047;-63
2022/03/02 07:10:38;;;;;;;7.87;2.98;;;;;;;10.80;62.23;101672.90;1878826;76;21124;-62
2022/03/02 07:13:09;;;;;;;8.13;2.65;;;;;;;11.35;62.02;101678.97;1878822;76;21465;-62
2022/03/02 07:15:38;;;;;;;10.60;2.50;;;;;;;11.72;60.02;101680.11;1878768;76;21125;-62
2022/03/02 07:18:07;;;;;;;5.92;2.08;;;;;;;12.13;59.04;101678.50;1878976;76;21047;-62
2022/03/02 07:20:39;;;;;;;8.63;3.00;;;;;;;12.91;57.74;101677.75;1880010;76;21137;-62
2022/03/02 07:23:10;;;;;;;9.40;2.62;;;;;;;13.12;56.31;101678.35;1881536;76;21042;-60
2022/03/02 07:25:41;;;;;;;10.40;3.77;;;;;;;13.14;55.21;101682.27;1888434;76;21423;-61
2022/03/02 07:28:13;;;;;;;10.70;3.77;;;;;;;13.06;55.58;101679.05;1849748;77;21551;-62
2022/03/02 07:30:43;;;;;;;8.53;3.08;;;;;;;12.79;55.80;101674.22;1888241;75;21034;-62
2022/03/02 07:33:14;;;;;;;12.63;4.08;;;;;;;12.67;55.87;101668.88;1888325;76;21043;-62
2022/03/02 07:35:45;;;;;;;7.42;3.40;;;;;;;12.85;55.98;101668.72;1850109;77;21022;-62
2022/03/02 07:38:14;;;;;;;13.13;4.25;;;;;;;12.99;55.27;101662.52;1888639;76;21108;-63
2022/03/02 07:40:45;;;;;;;15.25;5.15;;;;;;;13.38;54.17;101660.73;1888340;76;21020;-65
2022/03/02 07:43:14;;;;;;;6.58;1.70;;;;;;;13.73;53.83;101655.93;1849919;77;21513;-63
2022/03/02 07:45:42;;;;;;;6.85;1.62;;;;;;;14.28;52.97;101651.61;1888410;76;21457;-63
2022/03/02 07:48:11;;;;;;;48.60;13.38;;;;;;;14.48;51.92;101640.20;1888317;76;21016;-63
2022/03/02 07:50:43;;;;;;;5.15;1.70;;;;;;;14.45;52.44;101646.47;1849899;77;21023;-64
2022/03/02 07:53:15;;;;;;;2.65;1.30;;;;;;;13.97;52.15;101643.53;1888298;76;21527;-63
2022/03/02 07:55:47;;;;;;;6.12;2.22;;;;;;;13.35;51.90;101646.75;1854891;77;21072;-63
2022/03/02 07:58:18;;;;;;;9.45;3.67;;;;;;;12.83;52.48;101637.05;1888278;75;21401;-62
2022/03/02 08:00:53;;;;;;;5.97;2.00;;;;;;;12.52;53.18;101630.61;1849858;77;21551;-63
2022/03/02 08:03:24;;;;;;;8.38;2.47;;;;;;;12.52;53.65;101634.14;1888305;76;21465;-62
2022/03/02 08:05:55;;;;;;;7.92;2.42;;;;;;;12.52;53.31;101631.94;1849456;76;21118;-62
2022/03/02 08:08:24;;;;;;;9.45;3.22;;;;;;;12.63;53.56;101625.83;1887953;76;21144;-61
2022/03/02 08:10:54;;;;;;;9.00;3.02;;;;;;;12.84;53.24;101627.38;1888390;75;21044;-62
2022/03/02 08:13:23;;;;;;;12.03;2.67;;;;;;;12.91;51.90;101627.53;1849966;77;21113;-62
2022/03/02 08:15:53;;;;;;;4.92;2.27;;;;;;;13.06;51.56;101617.77;1888328;76;21026;-63
2022/03/02 08:18:21;;;;;;;9.05;2.30;;;;;;;13.33;51.29;101612.42;1888266;76;21601;-63
2022/03/02 08:20:53;;;;;;;3.30;1.50;;;;;;;13.55;51.07;101612.48;1849187;77;21086;-63
2022/03/02 08:23:24;;;;;;;4.67;1.60;;;;;;;13.62;50.70;101608.69;1890382;74;21162;-62
2022/03/02 08:25:55;;;;;;;3.50;2.05;;;;;;;13.45;50.01;101610.66;1934816;74;21494;-61
2022/03/02 08:28:24;;;;;;;6.25;1.45;;;;;;;13.35;50.46;101607.93;1934503;74;21031;-62
2022/03/02 08:30:54;;;;;;;2.35;1.00;;;;;;;13.38;50.87;101602.53;1934525;74;21537;-62
2022/03/02 08:33:29;;;;;;;5.30;1.72;;;;;;;13.07;50.59;101604.93;1934508;74;21051;-62
2022/03/02 08:35:57;;;;;;;;;;;;;;;12.62;51.32;101599.02;1937490;74;21031;-61
2022/03/02 08:38:27;;;;;;;15.20;3.02;;;;;;;12.10;51.58;101595.00;1934556;74;20116;-63
2022/03/02 08:40:55;;;;;;;32.45;12.23;;;;;;;11.76;52.60;101590.71;1934484;74;21023;-64
2022/03/02 08:43:24;;;;;;;6.03;1.65;;;;;;;11.57;53.27;101586.92;1934428;74;21101;-65
2022/03/02 08:45:53;;;;;;;2.70;1.40;;;;;;;11.40;53.46;101586.95;1934558;74;21039;-63
2022/03/02 08:48:22;;;;;;;11.28;2.40;;;;;;;11.20;53.52;101587.52;1934497;74;21516;-60
2022/03/02 08:50:53;;;;;;;6.00;1.72;;;;;;;11.11;53.95;101577.23;1934652;74;21027;-59
2022/03/02 08:53:24;;;;;;;5.90;1.70;;;;;;;11.09;54.35;101575.55;1934743;74;21451;-60
2022/03/02 08:55:54;;;;;;;5.25;1.55;;;;;;;11.02;54.08;101570.89;1934385;74;21646;-60
2022/03/02 08:58:24;;;;;;;6.05;1.57;;;;;;;10.90;53.95;101564.64;1934462;74;21035;-60
2022/03/02 09:00:54;;;;;;;9.48;2.33;;;;;;;10.87;54.35;101570.01;1934469;74;21516;-60
2022/03/02 09:03:23;;;;;;;3.20;1.10;;;;;;;10.80;54.52;101563.56;1934579;74;21003;-63
2022/03/02 09:05:53;;;;;;;6.12;1.52;;;;;;;10.78;54.55;101570.65;1934465;74;21124;-64
2022/03/02 09:08:22;;;;;;;5.47;1.98;;;;;;;10.66;54.14;101563.52;1934446;74;21112;-64
2022/03/02 09:10:52;;;;;;;7.28;1.90;;;;;;;10.65;54.63;101567.08;1934443;74;21067;-64
2022/03/02 09:13:37;;;;;;;;;;;;;;;;;;;;;
2022/03/02 09:15:59;;;;;;;9.18;4.03;;;;;;;10.69;54.92;101576.16;1964387;73;21105;-65
2022/03/02 09:18:28;;;;;;;5.33;2.05;;;;;;;10.66;55.04;101568.36;1939485;73;21085;-65
2022/03/02 09:21:00;;;;;;;6.22;2.70;;;;;;;10.65;55.16;101566.62;1922451;74;21133;-63
2022/03/02 09:23:31;;;;;;;6.90;1.67;;;;;;;10.64;55.27;101564.88;1931111;73;21192;-64
2022/03/02 09:26:05;;;;;;;5.08;1.92;;;;;;;10.59;55.13;101561.52;1936041;73;21117;-64
2022/03/02 09:28:40;;;;;;;3.80;1.75;;;;;;;10.53;55.30;101562.97;1921723;74;21066;-64
2022/03/02 09:31:12;;;;;;;2.50;1.75;;;;;;;10.50;55.52;101559.98;1947239;73;21101;-64
2022/03/02 09:33:41;;;;;;;3.50;1.42;;;;;;;10.48;55.77;101556.98;1925564;74;21038;-64
2022/03/02 09:36:12;;;;;;;4.25;1.47;;;;;;;10.43;55.93;101557.94;1925437;74;21010;-68
2022/03/02 09:38:41;;;;;;;3.00;1.30;;;;;;;10.35;55.71;101549.85;1931223;73;20995;-66
2022/03/02 09:41:12;;;;;;;5.17;1.98;;;;;;;10.31;55.87;101550.80;1966351;73;21026;-58
2022/03/02 09:43:44;;;;;;;2.55;1.47;;;;;;;10.30;55.98;101542.02;1966368;73;21026;-58
2022/03/02 09:46:14;;;;;;;2.52;0.98;;;;;;;10.31;56.00;101542.48;1967449;73;20994;-57
2022/03/02 09:48:46;;;;;;;9.70;2.83;;;;;;;10.36;55.78;101538.40;1967321;73;21124;-57
2022/03/02 09:51:18;;;;;;;4.92;1.57;;;;;;;10.33;55.30;101538.03;1967250;72;21581;-57
2022/03/02 09:53:49;;;;;;;3.72;1.52;;;;;;;10.42;55.13;101533.86;1966359;73;21445;-60
2022/03/02 09:56:22;;;;;;;4.10;1.50;;;;;;;10.57;54.97;101519.88;1967447;73;21080;-59
2022/03/02 09:58:53;;;;;;;2.90;1.20;;;;;;;10.66;54.59;101516.12;1967450;73;21104;-60
2022/03/02 10:01:26;;;;;;;2.62;1.77;;;;;;;10.62;54.50;101508.32;1967426;73;21022;-59
2022/03/02 10:03:55;;;;;;;2.37;1.20;;;;;;;10.73;54.77;101503.19;1967671;73;21026;-59
2022/03/02 10:06:25;;;;;;;5.12;1.00;;;;;;;10.75;53.54;101497.00;1967297;73;21030;-59
2022/03/02 10:11:44;;;;;;;2.72;1.40;;;;;;;10.91;53.32;101480.75;1876303;76;21056;-59
2022/03/02 10:14:13;;;;;;;3.83;1.12;;;;;;;11.24;52.87;101483.31;1872308;77;21517;-59
2022/03/02 10:16:44;;;;;;;6.28;2.02;;;;;;;11.44;51.95;101473.48;1872281;77;21563;-59
2022/03/02 10:19:27;;;;;;;5.10;1.57;;;;;;;11.53;51.57;101462.19;1872051;77;21020;-60
2022/03/02 10:22:23;;;;;;;5.08;2.10;;;;;;;11.59;51.61;101468.57;1843438;77;21071;-61
2022/03/02 10:24:56;;;;;;;6.97;2.05;;;;;;;11.51;52.05;101456.53;1893937;76;21110;-60
2022/03/02 10:27:37;;;;;;;3.40;1.87;;;;;;;11.09;52.80;101440.68;1891685;76;21090;-59
2022/03/02 10:30:11;;;;;;;6.28;1.77;;;;;;;11.09;52.80;101440.68;1891837;76;21046;-59
2022/03/02 10:32:43;;;;;;;4.58;1.67;;;;;;;10.85;52.63;101441.41;1891761;76;21445;-60
2022/03/02 10:35:14;;;;;;;3.50;1.30;;;;;;;10.59;52.37;101431.16;1891738;76;21453;-60
2022/03/02 10:37:55;;;;;;;4.72;1.70;;;;;;;10.47;52.42;101423.59;1891723;76;21077;-59
2022/03/02 10:40:24;;;;;;;4.17;1.57;;;;;;;10.34;52.76;101416.02;1891579;76;21725;-59
2022/03/02 10:43:00;;;;;;;7.08;1.87;;;;;;;10.27;53.02;101414.89;1889366;76;21489;-59
2022/03/02 10:45:31;;;;;;;4.12;1.30;;;;;;;10.26;53.18;101412.72;1871148;76;21034;-60
2022/03/02 10:48:19;;;;;;;5.47;2.17;;;;;;;10.29;53.30;101402.55;1891609;76;21120;-60
2022/03/02 10:50:52;;;;;;;4.28;2.10;;;;;;;10.36;53.70;101402.36;1883995;74;21043;-58
2022/03/02 10:53:21;;;;;;;3.37;1.50;;;;;;;10.48;53.87;101399.01;1888496;74;21186;-67
2022/03/02 10:55:51;;;;;;;4.95;1.72;;;;;;;10.55;53.98;101390.00;1883349;76;21038;-72
2022/03/02 10:58:20;;;;;;;8.73;1.80;;;;;;;10.56;53.93;101395.69;1862661;74;21121;-61
2022/03/02 11:00:50;;;;;;;4.00;1.15;;;;;;;10.52;54.14;101399.33;1860974;76;21078;-63
2022/03/02 11:03:20;;;;;;;4.83;1.70;;;;;;;10.51;54.13;101397.58;1870562;76;21047;-64
2022/03/02 11:05:50;;;;;;;5.92;1.98;;;;;;;10.49;54.38;101390.19;1860678;76;21114;-61
2022/03/02 11:11:11;;;;;;;4.72;1.70;;;;;;;10.53;54.51;101392.70;1870509;76;21394;-65
2022/03/02 11:13:40;;;;;;;5.90;1.70;;;;;;;10.52;54.56;101391.42;1891935;76;21159;-63
2022/03/02 11:16:09;;;;;;;2.22;1.02;;;;;;;10.58;54.62;101396.50;1891805;76;21112;-66
2022/03/02 11:18:51;;;;;;;3.92;2.52;;;;;;;10.71;54.59;101393.06;1891728;76;21038;-61
2022/03/02 11:21:20;;;;;;;5.92;1.95;;;;;;;10.76;54.32;101398.61;1844728;76;21501;-66
2022/03/02 11:23:57;;;;;;;5.37;2.23;;;;;;;10.84;54.26;101405.42;1881801;76;21092;-61
2022/03/02 11:26:29;;;;;;;7.45;2.37;;;;;;;10.93;54.24;101407.32;1850635;76;21111;-62
2022/03/02 11:29:01;;;;;;;12.53;2.40;;;;;;;11.08;54.22;101402.50;1850427;77;21142;-62
2022/03/02 11:31:31;;;;;;;7.10;2.62;;;;;;;11.19;54.13;101397.77;1850576;77;21475;-62
2022/03/02 11:34:12;;;;;;;9.00;4.12;;;;;;;11.18;53.94;101397.38;1866412;76;21036;-66
2022/03/02 11:36:45;;;;;;;9.50;3.80;;;;;;;11.06;54.08;101389.83;1880171;76;21124;-64
2022/03/02 11:39:15;;;;;;;7.78;3.00;;;;;;;10.87;54.48;101377.69;1881959;76;21109;-66
2022/03/02 11:41:46;;;;;;;7.12;2.90;;;;;;;10.77;54.90;101377.95;1881923;76;21046;-65
2022/03/02 11:44:33;;;;;;;10.00;3.60;;;;;;;10.65;55.07;101386.67;1879367;76;21091;-60
2022/03/02 11:47:05;;;;;;;9.75;2.37;;;;;;;10.49;55.28;101373.07;1858674;76;21078;-65
2022/03/02 11:49:45;;;;;;;7.80;2.80;;;;;;;10.42;55.60;101375.89;1862468;76;21014;-62
2022/03/02 11:52:20;;;;;;;9.60;3.30;;;;;;;10.37;55.72;101371.20;1881887;76;21042;-59